Edina — V4DE3 — position and weather

sailwx.info

Track history (hours):
 
Tides and Currents Weather Stations Pressure Air Temp Water Temp Dewpoint Dewpoint Depression Visibility Wind Speed Wind Dir Waves Ship Positions

Edina

Last reported at 2018-Feb-07 04:25 UTC. Time now 2018-Feb-18 18:36 UTC.
Position N 18°13' W 063°26'.
Warning: this ship's position is 11 days out of date.

Length 30 m; draft 4.2 m.

Type: Tug. MMSI: 341645000.

Date/timePositionNaut miles runAvg speedWind from/ knotsBaromVisibWave heightAir tempDewpointWater temp
2018-Feb-07 04:25N 18°13' W 063°26'4 7.1
2018-Feb-07 03:55N 18°13' W 063°22'3 7.4
2018-Feb-07 03:27N 18°12' W 063°19'3 7.2
2018-Feb-07 02:59N 18°12' W 063°15'4 7.2
2018-Feb-07 02:27N 18°11' W 063°11'5 0.5
2018-Feb-06 17:39N 18°12' W 063°07'0 0.1
2018-Feb-06 13:01N 18°12' W 063°07'0 1.4
2018-Feb-06 12:47N 18°12' W 063°07'2 1.9
2018-Feb-06 11:41N 18°11' W 063°09'1 4.3
2018-Feb-06 11:25N 18°11' W 063°10'2 4.6
2018-Feb-06 10:59N 18°09' W 063°11'3 5.5
2018-Feb-06 10:29N 18°06' W 063°11'3 5.4
2018-Feb-06 10:00N 18°04' W 063°10'3 5.4
2018-Feb-06 09:30N 18°02' W 063°09'3 6.0
2018-Feb-06 09:00N 18°00' W 063°06'3 5.3
2018-Feb-06 08:27N 18°00' W 063°03'0 0.1
2018-Feb-06 08:00N 18°00' W 063°03'0 0.0
2018-Feb-06 07:20N 18°00' W 063°03'0 0.0
2018-Feb-06 06:53N 18°00' W 063°03'0 0.0
2018-Feb-06 06:28N 18°00' W 063°03'0 0.0
2018-Feb-06 05:58N 18°00' W 063°03'0 0.0
2018-Feb-06 05:28N 18°00' W 063°03'0 0.0
2018-Feb-06 03:58N 18°00' W 063°03'0 0.0
2018-Feb-06 03:30N 18°00' W 063°03'0 0.0
2018-Feb-06 02:58N 18°00' W 063°03'0 0.0
2018-Feb-06 02:25N 18°00' W 063°03'0 0.0
2018-Feb-06 01:48N 18°00' W 063°03'0 0.0
2018-Feb-06 01:24N 18°00' W 063°03'0 0.0
2018-Feb-06 00:44N 18°00' W 063°03'0 0.0
2018-Feb-05 23:49N 18°00' W 063°03'0 0.0
2018-Feb-05 23:27N 18°00' W 063°03'0 0.0
2018-Feb-05 22:49N 18°00' W 063°03'0 0.0
2018-Feb-05 22:22N 18°00' W 063°03'0 0.0
2018-Feb-05 21:52N 18°00' W 063°03'0 0.0
2018-Feb-05 21:19N 18°00' W 063°03'0 0.0
2018-Feb-05 21:00N 18°00' W 063°03'0 0.0
2018-Feb-05 20:30N 18°00' W 063°03'0 0.0
2018-Feb-05 19:45N 18°00' W 063°03'0 0.0
2018-Feb-05 19:30N 18°00' W 063°03'0 0.0
2018-Feb-05 18:59N 18°00' W 063°03'0 0.0
2018-Feb-05 18:23N 18°00' W 063°03'0 0.0
2018-Feb-05 17:54N 18°00' W 063°03'0 0.0
2018-Feb-05 15:37N 18°00' W 063°03'0 0.0
2018-Feb-05 15:22N 18°00' W 063°03'0 0.0
2018-Feb-05 14:58N 18°00' W 063°03'0 0.0
2018-Feb-05 14:27N 18°00' W 063°03'1 1.3
2018-Feb-05 14:00N 18°01' W 063°03'0 0.2
2018-Feb-05 13:19N 18°01' W 063°03'0 0.0
2018-Feb-05 12:49N 18°01' W 063°03'0 0.0
2018-Feb-05 09:01N 18°01' W 063°03'0 0.0
2018-Feb-05 05:28N 18°01' W 063°03'0 0.0
2018-Feb-05 04:46N 18°01' W 063°03'0 0.0
2018-Feb-05 04:28N 18°01' W 063°03'0 0.0
2018-Feb-05 03:43N 18°01' W 063°03'0 0.0
2018-Feb-05 03:21N 18°01' W 063°03'0 0.0
2018-Feb-05 02:57N 18°01' W 063°03'0 0.0
2018-Feb-05 02:12N 18°01' W 063°03'0 0.0
2018-Feb-05 01:54N 18°01' W 063°03'0 0.0
2018-Feb-05 01:27N 18°01' W 063°03'0 0.0
2018-Feb-05 01:00N 18°01' W 063°03'0 0.0
2018-Feb-05 00:30N 18°01' W 063°03'0 0.0
2018-Feb-04 22:57N 18°01' W 063°03'0 0.0
2018-Feb-04 22:27N 18°01' W 063°03'0 0.0
2018-Feb-04 19:49N 18°01' W 063°03'0 0.0
2018-Feb-04 19:28N 18°01' W 063°03'0 0.0
2018-Feb-04 18:49N 18°01' W 063°03'0 1.0
2018-Feb-04 18:20N 18°00' W 063°03'1 1.9
2018-Feb-04 17:57N 17°60' W 063°04'2 4.5
2018-Feb-04 17:28N 17°58' W 063°04'10 5.0
2018-Feb-04 15:29N 17°48' W 062°60'2 5.0
2018-Feb-04 14:59N 17°46' W 062°59'3 5.0
2018-Feb-04 14:27N 17°43' W 062°58'2 4.8
2018-Feb-04 14:00N 17°41' W 062°57'3 4.9
2018-Feb-04 13:30N 17°39' W 062°56'4 5.0
2018-Feb-04 12:44N 17°35' W 062°55'57 5.0
2018-Feb-04 01:24N 16°48' W 062°21'2 5.3
2018-Feb-04 01:00N 16°47' W 062°20'3 5.3
2018-Feb-04 00:29N 16°45' W 062°17'3 5.6
2018-Feb-04 00:01N 16°43' W 062°16'3 0.3
2018-Feb-03 10:27N 16°40' W 062°15'2 3.4
2018-Feb-03 10:00N 16°38' W 062°15'3 5.4
2018-Feb-03 09:30N 16°37' W 062°12'3 5.1
2018-Feb-03 09:00N 16°35' W 062°10'2 4.9
2018-Feb-03 08:31N 16°33' W 062°09'2 4.7
2018-Feb-03 08:00N 16°32' W 062°07'7 4.8
2018-Feb-03 06:30N 16°28' W 062°01'3 5.1
2018-Feb-03 06:00N 16°27' W 061°58'2 4.9
2018-Feb-03 05:31N 16°25' W 061°56'2 4.8
2018-Feb-03 05:00N 16°24' W 061°54'4 4.0
2018-Feb-03 03:58N 16°20' W 061°52'2 4.5
2018-Feb-03 03:29N 16°18' W 061°52'19 0.4
2018-Feb-01 06:58N 15°60' W 061°46'3 6.3
2018-Feb-01 06:29N 16°02' W 061°47'24 5.3
2018-Feb-01 01:58N 16°23' W 062°01'3 4.3
2018-Feb-01 01:23N 16°25' W 062°02'2 4.3
2018-Feb-01 00:57N 16°26' W 062°03'2 4.6
2018-Feb-01 00:30N 16°28' W 062°04'2 4.9
2018-Feb-01 00:00N 16°30' W 062°06'5 5.1
2018-Jan-31 23:00N 16°34' W 062°09'3 5.1
2018-Jan-31 22:30N 16°36' W 062°10'7 0.7
2018-Jan-31 11:42N 16°42' W 062°14'1 6.6
2018-Jan-31 11:28N 16°44' W 062°15'3 7.3
2018-Jan-31 11:00N 16°47' W 062°13'2 3.6
2018-Jan-31 10:30N 16°49' W 062°13'0 0.0
2018-Jan-31 02:24N 16°48' W 062°13'0 0.0
2018-Jan-30 23:40N 16°48' W 062°13'0 0.0
2018-Jan-30 23:28N 16°48' W 062°13'0 0.0
2018-Jan-30 22:26N 16°48' W 062°13'1 1.1
2018-Jan-30 21:30N 16°49' W 062°13'3 6.4
2018-Jan-30 21:00N 16°52' W 062°11'4 7.3
2018-Jan-30 20:28N 16°55' W 062°08'4 7.4
2018-Jan-30 19:59N 16°57' W 062°06'4 7.5
2018-Jan-30 19:30N 16°60' W 062°03'4 7.5
2018-Jan-30 18:56N 17°03' W 061°60'3 7.0
2018-Jan-30 18:30N 17°05' W 061°58'4 7.1
2018-Jan-30 18:00N 17°08' W 061°55'3 6.9
2018-Jan-30 17:30N 17°10' W 061°52'4 7.5
2018-Jan-30 17:00N 17°11' W 061°49'3 6.3
2018-Jan-30 16:30N 17°09' W 061°46'1 2.7
2018-Jan-30 15:59N 17°08' W 061°45'0 0.0
2018-Jan-30 15:29N 17°08' W 061°45'0 0.0
2018-Jan-30 14:59N 17°08' W 061°45'0 0.0
2018-Jan-30 14:28N 17°08' W 061°45'0 0.0
2018-Jan-30 13:28N 17°08' W 061°45'0 0.0
2018-Jan-30 12:58N 17°08' W 061°45'0 0.0
2018-Jan-30 12:28N 17°08' W 061°45'0 0.0
2018-Jan-30 11:58N 17°08' W 061°45'0 0.0
2018-Jan-30 11:28N 17°08' W 061°45'0 0.0
2018-Jan-30 10:27N 17°08' W 061°45'0 0.0
2018-Jan-30 09:27N 17°08' W 061°45'0 0.0
2018-Jan-30 09:00N 17°08' W 061°45'0 0.0
2018-Jan-30 08:30N 17°08' W 061°45'0 0.0
2018-Jan-30 08:00N 17°08' W 061°45'0 0.0
2018-Jan-30 07:30N 17°08' W 061°45'0 0.0
2018-Jan-30 07:00N 17°08' W 061°45'0 0.0
2018-Jan-30 06:30N 17°08' W 061°45'0 0.0
2018-Jan-30 06:00N 17°08' W 061°45'0 0.0
2018-Jan-30 05:30N 17°08' W 061°45'0 0.0
2018-Jan-30 05:00N 17°08' W 061°45'0 0.0
2018-Jan-30 04:30N 17°08' W 061°45'0 0.0
2018-Jan-30 04:00N 17°08' W 061°45'0 0.0
2018-Jan-30 03:30N 17°08' W 061°45'0 0.0
2018-Jan-30 03:00N 17°08' W 061°45'0 0.0
2018-Jan-30 02:30N 17°08' W 061°45'0 0.0
2018-Jan-30 02:00N 17°08' W 061°45'0 0.0
2018-Jan-30 01:30N 17°08' W 061°45'0 0.0
2018-Jan-30 00:51N 17°08' W 061°45'0 0.0
2018-Jan-30 00:30N 17°08' W 061°45'0 0.0
2018-Jan-30 00:00N 17°08' W 061°45'0 0.0
2018-Jan-29 23:30N 17°08' W 061°45'0 0.0
2018-Jan-29 23:00N 17°08' W 061°45'0 0.0
2018-Jan-29 22:30N 17°08' W 061°45'0 0.0
2018-Jan-29 22:00N 17°08' W 061°45'0 0.0
2018-Jan-29 21:30N 17°08' W 061°45'0 0.0
2018-Jan-29 21:00N 17°08' W 061°45'0 0.0
2018-Jan-29 20:30N 17°08' W 061°45'0 0.0
2018-Jan-29 20:00N 17°08' W 061°45'0 0.0
2018-Jan-29 19:30N 17°08' W 061°45'0 0.0
2018-Jan-29 19:00N 17°08' W 061°45'0 0.0
2018-Jan-29 18:30N 17°08' W 061°45'0 0.0
2018-Jan-29 18:00N 17°08' W 061°45'0 0.0
2018-Jan-29 17:30N 17°08' W 061°45'0 0.0
2018-Jan-29 17:00N 17°08' W 061°45'0 0.0
2018-Jan-29 16:30N 17°08' W 061°45'0 0.0
2018-Jan-29 16:00N 17°08' W 061°45'0 0.0
2018-Jan-29 15:30N 17°08' W 061°45'0 0.0
2018-Jan-29 15:00N 17°08' W 061°45'0 0.0
2018-Jan-29 14:30N 17°08' W 061°45'0 0.0
2018-Jan-29 14:00N 17°08' W 061°45'0 0.0
2018-Jan-29 13:30N 17°08' W 061°45'0 0.0
2018-Jan-29 12:59N 17°08' W 061°45'0 0.0
2018-Jan-29 12:29N 17°08' W 061°45'0 0.0
2018-Jan-29 11:59N 17°08' W 061°45'0 0.0
2018-Jan-29 11:25N 17°08' W 061°45'0 0.0
2018-Jan-29 10:57N 17°08' W 061°45'0 0.0
2018-Jan-29 10:30N 17°08' W 061°45'0 0.0
2018-Jan-29 10:00N 17°08' W 061°45'0 0.0
2018-Jan-29 09:30N 17°08' W 061°45'0 0.0
2018-Jan-29 09:00N 17°08' W 061°45'0 0.0
2018-Jan-29 08:30N 17°08' W 061°45'0 0.0
2018-Jan-29 08:00N 17°08' W 061°45'0 0.0
2018-Jan-29 07:30N 17°08' W 061°45'0 0.0
2018-Jan-29 07:00N 17°08' W 061°45'0 0.0
2018-Jan-29 06:30N 17°08' W 061°45'0 0.0
2018-Jan-29 05:58N 17°08' W 061°45'0 0.0
2018-Jan-29 05:28N 17°08' W 061°45'0 0.0
2018-Jan-29 04:58N 17°08' W 061°45'0 0.0
2018-Jan-29 04:28N 17°08' W 061°45'0 0.0
2018-Jan-29 03:58N 17°08' W 061°45'0 0.0
2018-Jan-29 03:28N 17°08' W 061°45'0 0.0
2018-Jan-29 02:58N 17°08' W 061°45'0 0.0
2018-Jan-29 02:28N 17°08' W 061°45'0 0.0
2018-Jan-29 01:58N 17°08' W 061°45'0 0.0
2018-Jan-29 01:28N 17°08' W 061°45'0 0.0
2018-Jan-29 00:53N 17°08' W 061°45'0 0.0
2018-Jan-29 00:29N 17°08' W 061°45'0 0.0
2018-Jan-28 23:59N 17°08' W 061°45'0 0.0
2018-Jan-28 23:29N 17°08' W 061°45'0 0.0
2018-Jan-28 22:59N 17°08' W 061°45'0 0.0
2018-Jan-28 22:29N 17°08' W 061°45'0 0.0
2018-Jan-28 21:59N 17°08' W 061°45'0 0.0
2018-Jan-28 21:29N 17°08' W 061°45'0 0.0
2018-Jan-28 20:59N 17°08' W 061°45'0 0.0
2018-Jan-28 20:29N 17°08' W 061°45'0 0.0
2018-Jan-28 19:59N 17°08' W 061°45'0 0.0
2018-Jan-28 19:29N 17°08' W 061°45'0 0.0
2018-Jan-28 18:59N 17°08' W 061°45'0 0.0
2018-Jan-28 18:29N 17°08' W 061°45'0 0.0
2018-Jan-28 17:59N 17°08' W 061°45'0 0.0
2018-Jan-28 17:29N 17°08' W 061°45'0 0.0
2018-Jan-28 16:59N 17°08' W 061°45'0 0.0
2018-Jan-28 16:29N 17°08' W 061°45'0 0.0
2018-Jan-28 15:59N 17°08' W 061°45'0 0.0
2018-Jan-28 15:29N 17°08' W 061°45'0 0.0
2018-Jan-28 14:56N 17°08' W 061°45'0 0.0
2018-Jan-28 14:29N 17°08' W 061°45'0 0.0
2018-Jan-28 13:59N 17°08' W 061°45'0 0.0
2018-Jan-28 04:56N 17°08' W 061°45'0 0.0
2018-Jan-28 04:26N 17°08' W 061°45'  
Track history (hours):
 
Tides and Currents Weather Stations Pressure Air Temp Water Temp Dewpoint Dewpoint Depression Visibility Wind Speed Wind Dir Waves Ship Positions

Edina

Last reported at 2018-Feb-07 04:25 UTC. Time now 2018-Feb-18 18:36 UTC.
Position N 18°13' W 063°26'.
Warning: this ship's position is 11 days out of date.

Length 30 m; draft 4.2 m.

Type: Tug. MMSI: 341645000.

Date/timePositionNaut miles runAvg speedWind from/ knotsBaromVisibWave heightAir tempDewpointWater temp
2018-Feb-07 04:25N 18°13' W 063°26'4 7.1
2018-Feb-07 03:55N 18°13' W 063°22'3 7.4
2018-Feb-07 03:27N 18°12' W 063°19'3 7.2
2018-Feb-07 02:59N 18°12' W 063°15'4 7.2
2018-Feb-07 02:27N 18°11' W 063°11'5 0.5
2018-Feb-06 17:39N 18°12' W 063°07'0 0.1
2018-Feb-06 13:01N 18°12' W 063°07'0 1.4
2018-Feb-06 12:47N 18°12' W 063°07'2 1.9
2018-Feb-06 11:41N 18°11' W 063°09'1 4.3
2018-Feb-06 11:25N 18°11' W 063°10'2 4.6
2018-Feb-06 10:59N 18°09' W 063°11'3 5.5
2018-Feb-06 10:29N 18°06' W 063°11'3 5.4
2018-Feb-06 10:00N 18°04' W 063°10'3 5.4
2018-Feb-06 09:30N 18°02' W 063°09'3 6.0
2018-Feb-06 09:00N 18°00' W 063°06'3 5.3
2018-Feb-06 08:27N 18°00' W 063°03'0 0.1
2018-Feb-06 08:00N 18°00' W 063°03'0 0.0
2018-Feb-06 07:20N 18°00' W 063°03'0 0.0
2018-Feb-06 06:53N 18°00' W 063°03'0 0.0
2018-Feb-06 06:28N 18°00' W 063°03'0 0.0
2018-Feb-06 05:58N 18°00' W 063°03'0 0.0
2018-Feb-06 05:28N 18°00' W 063°03'0 0.0
2018-Feb-06 03:58N 18°00' W 063°03'0 0.0
2018-Feb-06 03:30N 18°00' W 063°03'0 0.0
2018-Feb-06 02:58N 18°00' W 063°03'0 0.0
2018-Feb-06 02:25N 18°00' W 063°03'0 0.0
2018-Feb-06 01:48N 18°00' W 063°03'0 0.0
2018-Feb-06 01:24N 18°00' W 063°03'0 0.0
2018-Feb-06 00:44N 18°00' W 063°03'0 0.0
2018-Feb-05 23:49N 18°00' W 063°03'0 0.0
2018-Feb-05 23:27N 18°00' W 063°03'0 0.0
2018-Feb-05 22:49N 18°00' W 063°03'0 0.0
2018-Feb-05 22:22N 18°00' W 063°03'0 0.0
2018-Feb-05 21:52N 18°00' W 063°03'0 0.0
2018-Feb-05 21:19N 18°00' W 063°03'0 0.0
2018-Feb-05 21:00N 18°00' W 063°03'0 0.0
2018-Feb-05 20:30N 18°00' W 063°03'0 0.0
2018-Feb-05 19:45N 18°00' W 063°03'0 0.0
2018-Feb-05 19:30N 18°00' W 063°03'0 0.0
2018-Feb-05 18:59N 18°00' W 063°03'0 0.0
2018-Feb-05 18:23N 18°00' W 063°03'0 0.0
2018-Feb-05 17:54N 18°00' W 063°03'0 0.0
2018-Feb-05 15:37N 18°00' W 063°03'0 0.0
2018-Feb-05 15:22N 18°00' W 063°03'0 0.0
2018-Feb-05 14:58N 18°00' W 063°03'0 0.0
2018-Feb-05 14:27N 18°00' W 063°03'1 1.3
2018-Feb-05 14:00N 18°01' W 063°03'0 0.2
2018-Feb-05 13:19N 18°01' W 063°03'0 0.0
2018-Feb-05 12:49N 18°01' W 063°03'0 0.0
2018-Feb-05 09:01N 18°01' W 063°03'0 0.0
2018-Feb-05 05:28N 18°01' W 063°03'0 0.0
2018-Feb-05 04:46N 18°01' W 063°03'0 0.0
2018-Feb-05 04:28N 18°01' W 063°03'0 0.0
2018-Feb-05 03:43N 18°01' W 063°03'0 0.0
2018-Feb-05 03:21N 18°01' W 063°03'0 0.0
2018-Feb-05 02:57N 18°01' W 063°03'0 0.0
2018-Feb-05 02:12N 18°01' W 063°03'0 0.0
2018-Feb-05 01:54N 18°01' W 063°03'0 0.0
2018-Feb-05 01:27N 18°01' W 063°03'0 0.0
2018-Feb-05 01:00N 18°01' W 063°03'0 0.0
2018-Feb-05 00:30N 18°01' W 063°03'0 0.0
2018-Feb-04 22:57N 18°01' W 063°03'0 0.0
2018-Feb-04 22:27N 18°01' W 063°03'0 0.0
2018-Feb-04 19:49N 18°01' W 063°03'0 0.0
2018-Feb-04 19:28N 18°01' W 063°03'0 0.0
2018-Feb-04 18:49N 18°01' W 063°03'0 1.0
2018-Feb-04 18:20N 18°00' W 063°03'1 1.9
2018-Feb-04 17:57N 17°60' W 063°04'2 4.5
2018-Feb-04 17:28N 17°58' W 063°04'10 5.0
2018-Feb-04 15:29N 17°48' W 062°60'2 5.0
2018-Feb-04 14:59N 17°46' W 062°59'3 5.0
2018-Feb-04 14:27N 17°43' W 062°58'2 4.8
2018-Feb-04 14:00N 17°41' W 062°57'3 4.9
2018-Feb-04 13:30N 17°39' W 062°56'4 5.0
2018-Feb-04 12:44N 17°35' W 062°55'57 5.0
2018-Feb-04 01:24N 16°48' W 062°21'2 5.3
2018-Feb-04 01:00N 16°47' W 062°20'3 5.3
2018-Feb-04 00:29N 16°45' W 062°17'3 5.6
2018-Feb-04 00:01N 16°43' W 062°16'3 0.3
2018-Feb-03 10:27N 16°40' W 062°15'2 3.4
2018-Feb-03 10:00N 16°38' W 062°15'3 5.4
2018-Feb-03 09:30N 16°37' W 062°12'3 5.1
2018-Feb-03 09:00N 16°35' W 062°10'2 4.9
2018-Feb-03 08:31N 16°33' W 062°09'2 4.7
2018-Feb-03 08:00N 16°32' W 062°07'7 4.8
2018-Feb-03 06:30N 16°28' W 062°01'3 5.1
2018-Feb-03 06:00N 16°27' W 061°58'2 4.9
2018-Feb-03 05:31N 16°25' W 061°56'2 4.8
2018-Feb-03 05:00N 16°24' W 061°54'4 4.0
2018-Feb-03 03:58N 16°20' W 061°52'2 4.5
2018-Feb-03 03:29N 16°18' W 061°52'19 0.4
2018-Feb-01 06:58N 15°60' W 061°46'3 6.3
2018-Feb-01 06:29N 16°02' W 061°47'24 5.3
2018-Feb-01 01:58N 16°23' W 062°01'3 4.3
2018-Feb-01 01:23N 16°25' W 062°02'2 4.3
2018-Feb-01 00:57N 16°26' W 062°03'2 4.6
2018-Feb-01 00:30N 16°28' W 062°04'2 4.9
2018-Feb-01 00:00N 16°30' W 062°06'5 5.1
2018-Jan-31 23:00N 16°34' W 062°09'3 5.1
2018-Jan-31 22:30N 16°36' W 062°10'7 0.7
2018-Jan-31 11:42N 16°42' W 062°14'1 6.6
2018-Jan-31 11:28N 16°44' W 062°15'3 7.3
2018-Jan-31 11:00N 16°47' W 062°13'2 3.6
2018-Jan-31 10:30N 16°49' W 062°13'0 0.0
2018-Jan-31 02:24N 16°48' W 062°13'0 0.0
2018-Jan-30 23:40N 16°48' W 062°13'0 0.0
2018-Jan-30 23:28N 16°48' W 062°13'0 0.0
2018-Jan-30 22:26N 16°48' W 062°13'1 1.1
2018-Jan-30 21:30N 16°49' W 062°13'3 6.4
2018-Jan-30 21:00N 16°52' W 062°11'4 7.3
2018-Jan-30 20:28N 16°55' W 062°08'4 7.4
2018-Jan-30 19:59N 16°57' W 062°06'4 7.5
2018-Jan-30 19:30N 16°60' W 062°03'4 7.5
2018-Jan-30 18:56N 17°03' W 061°60'3 7.0
2018-Jan-30 18:30N 17°05' W 061°58'4 7.1
2018-Jan-30 18:00N 17°08' W 061°55'3 6.9
2018-Jan-30 17:30N 17°10' W 061°52'4 7.5
2018-Jan-30 17:00N 17°11' W 061°49'3 6.3
2018-Jan-30 16:30N 17°09' W 061°46'1 2.7
2018-Jan-30 15:59N 17°08' W 061°45'0 0.0
2018-Jan-30 15:29N 17°08' W 061°45'0 0.0
2018-Jan-30 14:59N 17°08' W 061°45'0 0.0
2018-Jan-30 14:28N 17°08' W 061°45'0 0.0
2018-Jan-30 13:28N 17°08' W 061°45'0 0.0
2018-Jan-30 12:58N 17°08' W 061°45'0 0.0
2018-Jan-30 12:28N 17°08' W 061°45'0 0.0
2018-Jan-30 11:58N 17°08' W 061°45'0 0.0
2018-Jan-30 11:28N 17°08' W 061°45'0 0.0
2018-Jan-30 10:27N 17°08' W 061°45'0 0.0
2018-Jan-30 09:27N 17°08' W 061°45'0 0.0
2018-Jan-30 09:00N 17°08' W 061°45'0 0.0
2018-Jan-30 08:30N 17°08' W 061°45'0 0.0
2018-Jan-30 08:00N 17°08' W 061°45'0 0.0
2018-Jan-30 07:30N 17°08' W 061°45'0 0.0
2018-Jan-30 07:00N 17°08' W 061°45'0 0.0
2018-Jan-30 06:30N 17°08' W 061°45'0 0.0
2018-Jan-30 06:00N 17°08' W 061°45'0 0.0
2018-Jan-30 05:30N 17°08' W 061°45'0 0.0
2018-Jan-30 05:00N 17°08' W 061°45'0 0.0
2018-Jan-30 04:30N 17°08' W 061°45'0 0.0
2018-Jan-30 04:00N 17°08' W 061°45'0 0.0
2018-Jan-30 03:30N 17°08' W 061°45'0 0.0
2018-Jan-30 03:00N 17°08' W 061°45'0 0.0
2018-Jan-30 02:30N 17°08' W 061°45'0 0.0
2018-Jan-30 02:00N 17°08' W 061°45'0 0.0
2018-Jan-30 01:30N 17°08' W 061°45'0 0.0
2018-Jan-30 00:51N 17°08' W 061°45'0 0.0
2018-Jan-30 00:30N 17°08' W 061°45'0 0.0
2018-Jan-30 00:00N 17°08' W 061°45'0 0.0
2018-Jan-29 23:30N 17°08' W 061°45'0 0.0
2018-Jan-29 23:00N 17°08' W 061°45'0 0.0
2018-Jan-29 22:30N 17°08' W 061°45'0 0.0
2018-Jan-29 22:00N 17°08' W 061°45'0 0.0
2018-Jan-29 21:30N 17°08' W 061°45'0 0.0
2018-Jan-29 21:00N 17°08' W 061°45'0 0.0
2018-Jan-29 20:30N 17°08' W 061°45'0 0.0
2018-Jan-29 20:00N 17°08' W 061°45'0 0.0
2018-Jan-29 19:30N 17°08' W 061°45'0 0.0
2018-Jan-29 19:00N 17°08' W 061°45'0 0.0
2018-Jan-29 18:30N 17°08' W 061°45'0 0.0
2018-Jan-29 18:00N 17°08' W 061°45'0 0.0
2018-Jan-29 17:30N 17°08' W 061°45'0 0.0
2018-Jan-29 17:00N 17°08' W 061°45'0 0.0
2018-Jan-29 16:30N 17°08' W 061°45'0 0.0
2018-Jan-29 16:00N 17°08' W 061°45'0 0.0
2018-Jan-29 15:30N 17°08' W 061°45'0 0.0
2018-Jan-29 15:00N 17°08' W 061°45'0 0.0
2018-Jan-29 14:30N 17°08' W 061°45'0 0.0
2018-Jan-29 14:00N 17°08' W 061°45'0 0.0
2018-Jan-29 13:30N 17°08' W 061°45'0 0.0
2018-Jan-29 12:59N 17°08' W 061°45'0 0.0
2018-Jan-29 12:29N 17°08' W 061°45'0 0.0
2018-Jan-29 11:59N 17°08' W 061°45'0 0.0
2018-Jan-29 11:25N 17°08' W 061°45'0 0.0
2018-Jan-29 10:57N 17°08' W 061°45'0 0.0
2018-Jan-29 10:30N 17°08' W 061°45'0 0.0
2018-Jan-29 10:00N 17°08' W 061°45'0 0.0
2018-Jan-29 09:30N 17°08' W 061°45'0 0.0
2018-Jan-29 09:00N 17°08' W 061°45'0 0.0
2018-Jan-29 08:30N 17°08' W 061°45'0 0.0
2018-Jan-29 08:00N 17°08' W 061°45'0 0.0
2018-Jan-29 07:30N 17°08' W 061°45'0 0.0
2018-Jan-29 07:00N 17°08' W 061°45'0 0.0
2018-Jan-29 06:30N 17°08' W 061°45'0 0.0
2018-Jan-29 05:58N 17°08' W 061°45'0 0.0
2018-Jan-29 05:28N 17°08' W 061°45'0 0.0
2018-Jan-29 04:58N 17°08' W 061°45'0 0.0
2018-Jan-29 04:28N 17°08' W 061°45'0 0.0
2018-Jan-29 03:58N 17°08' W 061°45'0 0.0
2018-Jan-29 03:28N 17°08' W 061°45'0 0.0
2018-Jan-29 02:58N 17°08' W 061°45'0 0.0
2018-Jan-29 02:28N 17°08' W 061°45'0 0.0
2018-Jan-29 01:58N 17°08' W 061°45'0 0.0
2018-Jan-29 01:28N 17°08' W 061°45'0 0.0
2018-Jan-29 00:53N 17°08' W 061°45'0 0.0
2018-Jan-29 00:29N 17°08' W 061°45'0 0.0
2018-Jan-28 23:59N 17°08' W 061°45'0 0.0
2018-Jan-28 23:29N 17°08' W 061°45'0 0.0
2018-Jan-28 22:59N 17°08' W 061°45'0 0.0
2018-Jan-28 22:29N 17°08' W 061°45'0 0.0
2018-Jan-28 21:59N 17°08' W 061°45'0 0.0
2018-Jan-28 21:29N 17°08' W 061°45'0 0.0
2018-Jan-28 20:59N 17°08' W 061°45'0 0.0
2018-Jan-28 20:29N 17°08' W 061°45'0 0.0
2018-Jan-28 19:59N 17°08' W 061°45'0 0.0
2018-Jan-28 19:29N 17°08' W 061°45'0 0.0
2018-Jan-28 18:59N 17°08' W 061°45'0 0.0
2018-Jan-28 18:29N 17°08' W 061°45'0 0.0
2018-Jan-28 17:59N 17°08' W 061°45'0 0.0
2018-Jan-28 17:29N 17°08' W 061°45'0 0.0
2018-Jan-28 16:59N 17°08' W 061°45'0 0.0
2018-Jan-28 16:29N 17°08' W 061°45'0 0.0
2018-Jan-28 15:59N 17°08' W 061°45'0 0.0
2018-Jan-28 15:29N 17°08' W 061°45'0 0.0
2018-Jan-28 14:56N 17°08' W 061°45'0 0.0
2018-Jan-28 14:29N 17°08' W 061°45'0 0.0
2018-Jan-28 13:59N 17°08' W 061°45'0 0.0
2018-Jan-28 04:56N 17°08' W 061°45'0 0.0
2018-Jan-28 04:26N 17°08' W 061°45'  

Dump ship's entire track history